Terminal Aerodrome Forecast
Issued by NWS

Current Version | Previous Version | Text Only | Print | Product List | Glossary On
Versions: 1 2 3 4 5 6 7 8 9 10 11 12 13 14
000
FTUS42 KMLB 240529
TAFLEE
TAF
KLEE 240529Z 2406/2506 03005KT P6SM SCT025 SCT050
     FM240900 03004KT P6SM VCSH SCT025 SCT035 BKN250
     FM241500 05009KT P6SM VCSH SCT030 SCT050 SCT250
     FM242200 05011KT P6SM VCSH SCT040 SCT250
     FM250300 03004KT P6SM SCT050 SCT250=

USA.gov is the U.S. government's official web portal to all federal, state and local government web resources and services.